createdAt,value
2019-03-06T00:01:25.797Z,9.90
2019-03-06T00:03:55.990Z,9.90
2019-03-06T00:06:25.117Z,9.90
2019-03-06T00:08:54.198Z,9.90
2019-03-06T00:11:23.206Z,9.90
2019-03-06T00:13:52.236Z,9.90
2019-03-06T00:16:21.267Z,9.90
2019-03-06T00:18:50.264Z,9.90
2019-03-06T00:21:19.337Z,9.90
2019-03-06T00:23:48.388Z,9.90
2019-03-06T00:26:17.398Z,9.80
2019-03-06T00:28:46.387Z,9.80
2019-03-06T00:31:15.505Z,9.80
2019-03-06T00:33:44.535Z,9.80
2019-03-06T00:36:24.632Z,9.80
2019-03-06T00:38:53.694Z,9.80
2019-03-06T00:41:34.834Z,9.80
2019-03-06T00:44:03.914Z,9.80
2019-03-06T00:46:33.046Z,9.80
2019-03-06T00:49:02.050Z,9.80
2019-03-06T00:51:32.149Z,9.80
2019-03-06T00:54:01.186Z,9.80
2019-03-06T00:56:30.242Z,9.80
2019-03-06T00:58:59.263Z,9.80
2019-03-06T01:01:28.469Z,9.80
2019-03-06T01:03:57.472Z,9.80
2019-03-06T01:06:27.342Z,9.80
2019-03-06T01:08:56.399Z,9.80
2019-03-06T01:11:25.387Z,9.80
2019-03-06T01:13:54.445Z,9.80
2019-03-06T01:16:23.455Z,9.80
2019-03-06T01:18:52.447Z,9.80
2019-03-06T01:21:21.541Z,9.80
2019-03-06T01:23:50.559Z,9.80
2019-03-06T01:26:19.565Z,9.80
2019-03-06T01:28:48.622Z,9.80
2019-03-06T01:31:17.656Z,9.80
2019-03-06T01:34:24.151Z,9.70
2019-03-06T01:37:11.153Z,9.80
2019-03-06T01:40:14.232Z,9.70
2019-03-06T01:42:51.211Z,9.70
2019-03-06T01:45:20.638Z,9.70
2019-03-06T01:47:49.713Z,9.70
2019-03-06T01:50:18.849Z,9.70
2019-03-06T01:52:48.091Z,9.70
2019-03-06T01:55:17.140Z,9.70
2019-03-06T01:57:46.152Z,9.70
2019-03-06T02:00:17.501Z,9.70
2019-03-06T02:02:46.677Z,9.70
2019-03-06T02:05:16.079Z,9.70
2019-03-06T02:07:45.175Z,9.70
2019-03-06T02:10:14.309Z,9.70
2019-03-06T02:12:43.374Z,9.70
2019-03-06T02:15:13.557Z,9.70
2019-03-06T02:17:42.590Z,9.70
2019-03-06T02:20:12.785Z,9.70
2019-03-06T02:22:41.807Z,9.80
2019-03-06T02:25:10.830Z,9.70
2019-03-06T02:27:39.889Z,9.80
2019-03-06T02:30:12.131Z,9.80
2019-03-06T02:32:41.195Z,9.80
2019-03-06T02:35:10.209Z,9.80
2019-03-06T02:37:39.233Z,9.80
2019-03-06T02:40:08.397Z,9.80
2019-03-06T02:42:37.513Z,9.80
2019-03-06T02:45:07.675Z,9.70
2019-03-06T02:47:36.735Z,9.80
2019-03-06T02:50:05.881Z,9.80
2019-03-06T02:52:34.955Z,9.80
2019-03-06T02:55:04.021Z,9.80
2019-03-06T02:57:33.159Z,9.80
2019-03-06T03:00:23.886Z,9.80
2019-03-06T03:03:05.386Z,9.80
2019-03-06T03:05:53.510Z,9.80
2019-03-06T03:08:22.562Z,9.70
2019-03-06T03:10:52.996Z,9.70
2019-03-06T03:13:22.041Z,9.80
2019-03-06T03:15:51.080Z,9.80
2019-03-06T03:18:20.097Z,9.80
2019-03-06T03:20:49.134Z,9.80
2019-03-06T03:23:18.167Z,9.80
2019-03-06T03:25:47.144Z,9.70
2019-03-06T03:28:16.189Z,9.80
2019-03-06T03:30:45.251Z,9.70
2019-03-06T03:33:14.280Z,9.80
2019-03-06T03:35:43.452Z,9.70
2019-03-06T03:38:12.523Z,9.80
2019-03-06T03:40:41.583Z,9.70
2019-03-06T03:43:10.596Z,9.80
2019-03-06T03:45:39.662Z,9.70
2019-03-06T03:48:08.970Z,9.70
2019-03-06T03:50:37.992Z,9.80
2019-03-06T03:53:07.081Z,9.80
2019-03-06T03:55:36.150Z,9.70
2019-03-06T03:58:05.220Z,9.80
2019-03-06T04:00:34.277Z,9.70
2019-03-06T04:03:03.308Z,9.80
2019-03-06T04:05:32.342Z,9.80
2019-03-06T04:08:01.331Z,9.80
2019-03-06T04:10:30.372Z,9.70
2019-03-06T04:12:59.487Z,9.80
2019-03-06T04:15:28.544Z,9.80
2019-03-06T04:17:57.590Z,9.70
2019-03-06T04:20:26.650Z,9.80
2019-03-06T04:22:55.645Z,9.80
2019-03-06T04:25:24.766Z,9.80
2019-03-06T04:27:53.909Z,9.80
2019-03-06T04:30:22.970Z,9.80
2019-03-06T04:32:51.942Z,9.80
2019-03-06T04:35:20.953Z,9.80
2019-03-06T04:37:49.998Z,9.80
2019-03-06T04:40:19.101Z,9.80
2019-03-06T04:42:48.198Z,9.80
2019-03-06T04:45:17.248Z,9.80
2019-03-06T04:47:46.291Z,9.80
2019-03-06T04:50:15.335Z,9.80
2019-03-06T04:52:44.540Z,9.80
2019-03-06T04:55:13.597Z,9.80
2019-03-06T04:57:42.625Z,9.80
2019-03-06T05:00:12.009Z,9.80
2019-03-06T05:02:41.005Z,9.80
2019-03-06T05:05:10.302Z,9.80
2019-03-06T05:07:39.474Z,9.80
2019-03-06T05:10:08.986Z,9.80
2019-03-06T05:12:37.962Z,9.80
2019-03-06T05:15:07.842Z,9.80
2019-03-06T05:17:45.864Z,9.80
2019-03-06T05:20:16.016Z,9.80
2019-03-06T05:22:45.070Z,9.80
2019-03-06T05:25:14.090Z,9.80
2019-03-06T05:27:43.358Z,9.80
2019-03-06T05:30:12.784Z,9.80
2019-03-06T05:32:41.918Z,9.80
2019-03-06T05:35:15.043Z,9.80
2019-03-06T05:37:54.287Z,9.80
2019-03-06T05:40:24.606Z,9.80
2019-03-06T05:42:53.630Z,9.80
2019-03-06T05:45:22.725Z,9.80
2019-03-06T05:47:51.730Z,9.80
2019-03-06T05:50:20.739Z,9.80
2019-03-06T05:52:49.740Z,9.80
2019-03-06T05:55:23.840Z,9.80
2019-03-06T05:57:52.873Z,9.80
2019-03-06T06:00:23.689Z,9.80
2019-03-06T06:02:52.665Z,9.80
2019-03-06T06:05:23.142Z,9.80
2019-03-06T06:07:52.161Z,9.80
2019-03-06T06:10:21.218Z,9.80
2019-03-06T06:12:50.473Z,9.80
2019-03-06T06:15:19.539Z,9.80
2019-03-06T06:17:48.542Z,9.80
2019-03-06T06:20:17.570Z,9.80
2019-03-06T06:23:05.706Z,9.80
2019-03-06T06:25:36.902Z,9.80
2019-03-06T06:28:06.015Z,9.80
2019-03-06T06:30:35.161Z,9.80
2019-03-06T06:33:04.222Z,9.80
2019-03-06T06:35:33.266Z,9.80
2019-03-06T06:38:02.334Z,9.80
2019-03-06T06:40:31.348Z,9.80
2019-03-06T06:43:00.337Z,9.80
2019-03-06T06:45:29.328Z,9.80
2019-03-06T06:48:12.254Z,9.80
2019-03-06T06:50:44.474Z,9.80
2019-03-06T06:53:45.042Z,9.80
2019-03-06T06:56:31.170Z,9.80
2019-03-06T06:59:07.740Z,9.80
2019-03-06T07:02:05.909Z,9.80
2019-03-06T07:05:25.854Z,9.80
2019-03-06T07:08:12.758Z,9.80
2019-03-06T07:10:54.734Z,9.80
2019-03-06T07:13:42.099Z,9.80
2019-03-06T07:16:32.897Z,9.90
2019-03-06T07:19:42.537Z,9.90
2019-03-06T07:22:39.580Z,9.90
2019-03-06T07:25:33.034Z,9.90
2019-03-06T07:28:06.757Z,9.90
2019-03-06T07:31:00.634Z,10.00
2019-03-06T07:33:50.961Z,10.00
2019-03-06T07:36:39.041Z,10.00
2019-03-06T07:39:24.213Z,10.00
2019-03-06T07:42:21.605Z,10.10
2019-03-06T07:45:49.410Z,10.10
2019-03-06T07:48:32.637Z,10.10
2019-03-06T07:51:07.652Z,10.10
2019-03-06T07:53:53.988Z,10.10
2019-03-06T07:56:30.101Z,10.20
2019-03-06T07:59:18.337Z,10.20
2019-03-06T08:01:56.930Z,10.30
2019-03-06T08:04:25.947Z,10.30
2019-03-06T08:07:10.754Z,10.30
2019-03-06T08:09:39.771Z,10.30
2019-03-06T08:12:15.285Z,10.40
2019-03-06T08:15:06.145Z,10.40
2019-03-06T08:17:47.457Z,10.40
2019-03-06T08:20:47.484Z,10.50
2019-03-06T08:23:35.786Z,10.50
2019-03-06T08:26:05.190Z,10.50
2019-03-06T08:28:34.261Z,10.60
2019-03-06T08:31:25.650Z,10.60
2019-03-06T08:33:54.718Z,10.60
2019-03-06T08:36:23.743Z,10.70
2019-03-06T08:38:52.751Z,10.70
2019-03-06T08:41:21.922Z,10.80
2019-03-06T08:44:10.124Z,10.80
2019-03-06T08:47:16.100Z,10.80
2019-03-06T08:50:02.871Z,10.90
2019-03-06T08:52:35.945Z,10.90
2019-03-06T08:55:22.977Z,10.90
2019-03-06T08:58:29.063Z,10.90
2019-03-06T09:02:00.205Z,10.90
2019-03-06T09:04:30.404Z,11.00
2019-03-06T09:07:07.800Z,11.00
2019-03-06T09:10:05.089Z,11.00
2019-03-06T09:12:40.603Z,11.00
2019-03-06T09:15:19.733Z,11.10
2019-03-06T09:18:10.726Z,11.10
2019-03-06T09:20:57.971Z,11.10
2019-03-06T09:23:34.988Z,11.20
2019-03-06T09:26:25.869Z,11.20
2019-03-06T09:29:11.513Z,11.20
2019-03-06T09:31:45.279Z,11.30
2019-03-06T09:34:29.212Z,11.30
2019-03-06T09:37:15.867Z,11.30
2019-03-06T09:39:56.174Z,11.40
2019-03-06T09:42:56.222Z,11.40
2019-03-06T09:45:33.228Z,11.50
2019-03-06T09:48:26.940Z,11.50
2019-03-06T09:51:04.433Z,11.50
2019-03-06T09:53:55.214Z,11.60
2019-03-06T09:56:44.002Z,11.70
2019-03-06T09:59:32.132Z,11.70
2019-03-06T10:04:59.963Z,11.80
2019-03-06T10:07:48.042Z,11.80
2019-03-06T10:10:45.966Z,11.80
2019-03-06T10:13:32.154Z,11.80
2019-03-06T10:16:26.357Z,11.90
2019-03-06T10:19:12.114Z,11.90
2019-03-06T10:21:41.165Z,12.00
2019-03-06T10:24:10.174Z,12.00
2019-03-06T10:26:39.184Z,12.00
2019-03-06T10:29:09.333Z,12.00
2019-03-06T10:31:38.638Z,12.10
2019-03-06T10:34:07.762Z,12.10
2019-03-06T10:36:36.812Z,12.10
2019-03-06T10:39:07.028Z,12.10
2019-03-06T10:41:36.071Z,12.20
2019-03-06T10:44:05.177Z,12.20
2019-03-06T10:46:34.221Z,12.20
2019-03-06T10:49:03.285Z,12.20
2019-03-06T10:51:32.330Z,12.20
2019-03-06T10:54:01.373Z,12.20
2019-03-06T10:56:30.422Z,12.20
2019-03-06T10:58:59.653Z,12.20
2019-03-06T11:01:28.663Z,12.20
2019-03-06T11:04:12.453Z,12.20
2019-03-06T11:06:41.503Z,12.20
2019-03-06T11:09:10.687Z,12.20
2019-03-06T11:11:40.944Z,12.20
2019-03-06T11:14:09.988Z,12.30
2019-03-06T11:16:39.000Z,12.30
2019-03-06T11:19:08.207Z,12.30
2019-03-06T11:21:37.204Z,12.30
2019-03-06T11:24:06.221Z,12.30
2019-03-06T11:26:35.259Z,12.30
2019-03-06T11:29:05.094Z,12.30
2019-03-06T11:31:34.139Z,12.20
2019-03-06T11:34:03.106Z,12.20
2019-03-06T11:36:32.106Z,12.20
2019-03-06T11:39:01.117Z,12.20
2019-03-06T11:41:30.839Z,12.20
2019-03-06T11:43:59.848Z,12.20
2019-03-06T11:46:28.802Z,12.20
2019-03-06T11:48:57.833Z,12.20
2019-03-06T11:51:26.893Z,12.20
2019-03-06T11:53:55.890Z,12.20
2019-03-06T11:56:24.895Z,12.20
2019-03-06T11:58:54.159Z,12.20
2019-03-06T12:01:26.214Z,12.20
2019-03-06T12:03:55.255Z,12.20
2019-03-06T12:06:24.275Z,12.20
2019-03-06T12:08:53.321Z,12.20
2019-03-06T12:11:22.382Z,12.20
2019-03-06T12:13:51.547Z,12.20
2019-03-06T12:16:20.588Z,12.20
2019-03-06T12:18:49.609Z,12.20
2019-03-06T12:21:18.629Z,12.20
2019-03-06T12:23:47.652Z,12.20
2019-03-06T12:26:16.666Z,12.20
2019-03-06T12:28:45.915Z,12.20
2019-03-06T12:31:15.035Z,12.20
2019-03-06T12:33:44.185Z,12.20
2019-03-06T12:36:13.210Z,12.20
2019-03-06T12:38:42.248Z,12.10
2019-03-06T12:41:12.710Z,12.10
2019-03-06T12:43:41.754Z,12.20
2019-03-06T12:46:22.405Z,12.10
2019-03-06T12:48:45.879Z,12.10
2019-03-06T12:51:17.486Z,12.10
2019-03-06T12:53:46.760Z,12.10
2019-03-06T12:56:17.881Z,12.10
2019-03-06T12:58:46.502Z,12.10
2019-03-06T13:01:17.001Z,12.10
2019-03-06T13:03:47.490Z,12.10
2019-03-06T13:06:24.082Z,12.10
2019-03-06T13:08:50.582Z,12.10
2019-03-06T13:11:18.100Z,12.10
2019-03-06T13:13:47.124Z,12.10
2019-03-06T13:16:16.176Z,12.10
2019-03-06T13:18:45.215Z,12.10
2019-03-06T13:21:15.602Z,12.10
2019-03-06T13:23:44.598Z,12.10
2019-03-06T13:26:13.669Z,12.10
2019-03-06T13:28:42.674Z,12.10
2019-03-06T13:31:11.754Z,12.10
2019-03-06T13:33:46.352Z,12.10
2019-03-06T13:36:15.387Z,12.10
2019-03-06T13:38:44.408Z,12.10
2019-03-06T13:41:13.454Z,12.10
2019-03-06T13:43:44.416Z,12.00
2019-03-06T13:46:15.211Z,12.10
2019-03-06T13:48:44.466Z,12.00
2019-03-06T13:51:13.539Z,12.00
2019-03-06T13:53:42.601Z,12.10
2019-03-06T13:56:11.658Z,12.10
2019-03-06T13:58:40.766Z,12.10
2019-03-06T14:01:10.871Z,12.10
2019-03-06T14:03:40.077Z,12.10
2019-03-06T14:06:09.117Z,12.20
2019-03-06T14:08:38.159Z,12.20
2019-03-06T14:11:07.233Z,12.20
2019-03-06T14:13:36.278Z,12.20
2019-03-06T14:16:05.839Z,12.20
2019-03-06T14:18:35.237Z,12.20
2019-03-06T14:21:04.288Z,12.20
2019-03-06T14:23:35.356Z,12.20
2019-03-06T14:26:04.261Z,12.30
2019-03-06T14:28:33.271Z,12.30
2019-03-06T14:31:02.292Z,12.30
2019-03-06T14:33:31.445Z,12.40
2019-03-06T14:36:00.489Z,12.40
2019-03-06T14:38:29.509Z,12.40
2019-03-06T14:40:58.666Z,12.40
2019-03-06T14:43:27.739Z,12.40
2019-03-06T14:45:56.762Z,12.40
2019-03-06T14:48:26.053Z,12.40
2019-03-06T14:50:55.109Z,12.40
2019-03-06T14:53:24.163Z,12.40
2019-03-06T14:55:53.302Z,12.40
2019-03-06T14:58:22.311Z,12.40
2019-03-06T15:00:51.606Z,12.50
2019-03-06T15:03:20.823Z,12.50
2019-03-06T15:05:49.861Z,12.40
2019-03-06T15:08:18.855Z,12.50
2019-03-06T15:10:47.986Z,12.50
2019-03-06T15:13:17.003Z,12.50
2019-03-06T15:15:46.014Z,12.40
2019-03-06T15:18:15.170Z,12.50
2019-03-06T15:20:44.204Z,12.50
2019-03-06T15:23:13.274Z,12.50
2019-03-06T15:25:42.421Z,12.50
2019-03-06T15:28:11.487Z,12.50
2019-03-06T15:30:40.499Z,12.50
2019-03-06T15:33:09.614Z,12.50
2019-03-06T15:35:38.683Z,12.50
2019-03-06T15:38:09.315Z,12.50
2019-03-06T15:40:40.542Z,12.50
2019-03-06T15:43:13.130Z,12.50
2019-03-06T15:45:42.366Z,12.50
2019-03-06T15:48:11.420Z,12.50
2019-03-06T15:50:40.996Z,12.50
2019-03-06T15:53:10.063Z,12.50
2019-03-06T15:55:39.099Z,12.50
2019-03-06T15:58:08.121Z,12.50
2019-03-06T16:00:45.840Z,12.50
2019-03-06T16:03:08.321Z,12.50
2019-03-06T16:05:37.467Z,12.40
2019-03-06T16:08:07.046Z,12.40
2019-03-06T16:10:36.086Z,12.40
2019-03-06T16:13:05.398Z,12.40
2019-03-06T16:15:34.534Z,12.40
2019-03-06T16:18:03.717Z,12.40
2019-03-06T16:20:32.939Z,12.40
2019-03-06T16:23:01.997Z,12.40
2019-03-06T16:25:36.742Z,12.40
2019-03-06T16:28:01.929Z,12.40
2019-03-06T16:30:31.527Z,12.40
2019-03-06T16:33:00.531Z,12.30
2019-03-06T16:35:29.530Z,12.30
2019-03-06T16:37:58.693Z,12.30
2019-03-06T16:40:27.957Z,12.30
2019-03-06T16:42:56.995Z,12.30
2019-03-06T16:45:26.210Z,12.20
2019-03-06T16:47:55.364Z,12.20
2019-03-06T16:50:24.511Z,12.20
2019-03-06T16:52:53.547Z,12.20
2019-03-06T16:55:22.852Z,12.20
2019-03-06T16:57:51.937Z,12.20
2019-03-06T17:00:28.469Z,12.20
2019-03-06T17:02:57.631Z,12.10
2019-03-06T17:05:26.781Z,12.10
2019-03-06T17:07:55.986Z,12.10
2019-03-06T17:10:25.265Z,12.10
2019-03-06T17:12:54.419Z,12.10
2019-03-06T17:15:23.816Z,12.10
2019-03-06T17:17:52.923Z,12.00
2019-03-06T17:20:23.446Z,12.00
2019-03-06T17:22:52.561Z,12.00
2019-03-06T17:25:21.647Z,12.00
2019-03-06T17:27:50.657Z,12.00
2019-03-06T17:30:21.336Z,11.90
2019-03-06T17:33:08.888Z,11.90
2019-03-06T17:35:37.982Z,11.90
2019-03-06T17:38:07.967Z,11.90
2019-03-06T17:40:37.026Z,11.80
2019-03-06T17:43:06.119Z,11.80
2019-03-06T17:45:35.171Z,11.80
2019-03-06T17:48:04.334Z,11.80
2019-03-06T17:50:33.385Z,11.80
2019-03-06T17:53:02.471Z,11.80
2019-03-06T17:55:31.499Z,11.70
2019-03-06T17:58:00.510Z,11.80
2019-03-06T18:00:48.647Z,11.70
2019-03-06T18:03:22.603Z,11.70
2019-03-06T18:05:51.628Z,11.70
2019-03-06T18:08:20.661Z,11.70
2019-03-06T18:10:49.720Z,11.70
2019-03-06T18:13:18.742Z,11.70
2019-03-06T18:15:47.757Z,11.70
2019-03-06T18:18:16.810Z,11.70
2019-03-06T18:20:45.878Z,11.70
2019-03-06T18:23:15.024Z,11.70
2019-03-06T18:25:44.102Z,11.70
2019-03-06T18:28:13.177Z,11.70
2019-03-06T18:30:42.235Z,11.70
2019-03-06T18:33:11.370Z,11.70
2019-03-06T18:35:40.412Z,11.70
2019-03-06T18:38:09.459Z,11.70
2019-03-06T18:40:38.515Z,11.70
2019-03-06T18:43:07.542Z,11.70
2019-03-06T18:45:36.694Z,11.70
2019-03-06T18:48:05.896Z,11.70
2019-03-06T18:50:46.993Z,11.70
2019-03-06T18:53:16.049Z,11.60
2019-03-06T18:55:45.196Z,11.70
2019-03-06T18:58:14.212Z,11.60
2019-03-06T19:00:43.314Z,11.60
2019-03-06T19:03:12.385Z,11.70
2019-03-06T19:05:41.572Z,11.70
2019-03-06T19:08:10.608Z,11.60
2019-03-06T19:10:39.758Z,11.60
2019-03-06T19:13:08.777Z,11.60
2019-03-06T19:15:37.846Z,11.70
2019-03-06T19:18:06.910Z,11.60
2019-03-06T19:20:36.009Z,11.60
2019-03-06T19:23:05.019Z,11.60
2019-03-06T19:25:34.341Z,11.70
2019-03-06T19:28:03.460Z,11.60
2019-03-06T19:30:32.669Z,11.70
2019-03-06T19:33:01.633Z,11.70
2019-03-06T19:35:30.653Z,11.70
2019-03-06T19:37:59.746Z,11.70
2019-03-06T19:40:29.007Z,11.70
2019-03-06T19:42:58.152Z,11.70
2019-03-06T19:45:27.225Z,11.70
2019-03-06T19:47:56.269Z,11.70
2019-03-06T19:50:26.024Z,11.70
2019-03-06T19:52:55.435Z,11.70
2019-03-06T19:55:24.725Z,11.70
2019-03-06T19:57:58.247Z,11.70
2019-03-06T20:00:29.328Z,11.70
2019-03-06T20:02:58.414Z,11.70
2019-03-06T20:05:30.520Z,11.70
2019-03-06T20:08:00.379Z,11.70
2019-03-06T20:10:29.513Z,11.70
2019-03-06T20:12:58.606Z,11.70
2019-03-06T20:15:27.931Z,11.70
2019-03-06T20:17:56.984Z,11.70
2019-03-06T20:20:26.064Z,11.70
2019-03-06T20:22:55.108Z,11.70
2019-03-06T20:25:24.120Z,11.70
2019-03-06T20:27:53.455Z,11.60
2019-03-06T20:30:22.666Z,11.70
2019-03-06T20:32:51.787Z,11.60
2019-03-06T20:35:21.919Z,11.60
2019-03-06T20:37:51.054Z,11.70
2019-03-06T20:40:20.132Z,11.70
2019-03-06T20:42:49.219Z,11.60
2019-03-06T20:45:18.380Z,11.70
2019-03-06T20:47:47.526Z,11.60
2019-03-06T20:50:16.633Z,11.70
2019-03-06T20:52:45.767Z,11.70
2019-03-06T20:55:15.390Z,11.60
2019-03-06T20:57:44.599Z,11.60
2019-03-06T21:00:15.563Z,11.60
2019-03-06T21:02:44.647Z,11.70
2019-03-06T21:05:13.784Z,11.60
2019-03-06T21:07:45.278Z,11.70
2019-03-06T21:10:14.873Z,11.60
2019-03-06T21:12:43.981Z,11.70
2019-03-06T21:15:14.472Z,11.60
2019-03-06T21:17:43.570Z,11.70
2019-03-06T21:20:14.607Z,11.70
2019-03-06T21:22:43.682Z,11.70
2019-03-06T21:25:14.202Z,11.70
2019-03-06T21:27:43.264Z,11.70
2019-03-06T21:30:18.972Z,11.70
2019-03-06T21:32:48.049Z,11.60
2019-03-06T21:35:17.206Z,11.70
2019-03-06T21:37:46.249Z,11.70
2019-03-06T21:40:15.303Z,11.70
2019-03-06T21:42:44.363Z,11.60
2019-03-06T21:45:13.430Z,11.60
2019-03-06T21:47:42.523Z,11.60
2019-03-06T21:50:12.268Z,11.60
2019-03-06T21:52:41.312Z,11.60
2019-03-06T21:55:11.746Z,11.60
2019-03-06T21:57:40.857Z,11.60
2019-03-06T22:00:13.065Z,11.60
2019-03-06T22:02:42.328Z,11.60
2019-03-06T22:05:11.367Z,11.60
2019-03-06T22:07:40.477Z,11.60
2019-03-06T22:10:09.733Z,11.60
2019-03-06T22:12:38.852Z,11.50
2019-03-06T22:15:09.459Z,11.50
2019-03-06T22:17:38.541Z,11.60
2019-03-06T22:20:08.105Z,11.60
2019-03-06T22:22:37.195Z,11.50
2019-03-06T22:25:06.467Z,11.60
2019-03-06T22:27:35.682Z,11.50
2019-03-06T22:30:05.309Z,11.50
2019-03-06T22:32:34.415Z,11.50
2019-03-06T22:35:03.480Z,11.50
2019-03-06T22:37:32.589Z,11.50
2019-03-06T22:40:01.591Z,11.50
2019-03-06T22:42:30.587Z,11.50
2019-03-06T22:44:59.596Z,11.50
2019-03-06T22:47:28.605Z,11.50
2019-03-06T22:49:57.619Z,11.40
2019-03-06T22:52:26.641Z,11.40
2019-03-06T22:54:55.709Z,11.40
2019-03-06T22:57:25.157Z,11.40
2019-03-06T22:59:54.198Z,11.40
2019-03-06T23:02:24.338Z,11.30
2019-03-06T23:04:53.343Z,11.40
2019-03-06T23:07:22.364Z,11.40
2019-03-06T23:09:51.428Z,11.30
2019-03-06T23:12:20.458Z,11.30
2019-03-06T23:14:49.471Z,11.30
2019-03-06T23:17:18.485Z,11.30
2019-03-06T23:19:47.519Z,11.30
2019-03-06T23:22:16.493Z,11.30
2019-03-06T23:24:45.898Z,11.30
2019-03-06T23:27:14.942Z,11.30
2019-03-06T23:29:44.049Z,11.30
2019-03-06T23:32:13.123Z,11.30
2019-03-06T23:34:42.145Z,11.30
2019-03-06T23:37:11.135Z,11.30
2019-03-06T23:39:40.565Z,11.30
2019-03-06T23:42:09.607Z,11.30
2019-03-06T23:44:38.681Z,11.30
2019-03-06T23:47:07.849Z,11.30
2019-03-06T23:49:37.163Z,11.40
2019-03-06T23:52:12.365Z,11.40
2019-03-06T23:54:41.420Z,11.40
2019-03-06T23:57:10.500Z,11.30
2019-03-06T23:59:39.506Z,11.40
